createdAt,value
2022-08-08T00:00:55.849Z,9.00
2022-08-08T00:02:30.893Z,9.73
2022-08-08T00:05:09.721Z,9.60
2022-08-08T00:08:00.796Z,10.37
2022-08-08T00:10:36.784Z,9.83
2022-08-08T00:14:16.714Z,9.57
2022-08-08T00:16:26.237Z,9.70
2022-08-08T00:19:00.913Z,8.70
2022-08-08T00:21:39.808Z,8.97
2022-08-08T00:24:18.153Z,9.17
2022-08-08T00:26:53.667Z,8.47
2022-08-08T00:29:44.435Z,8.30
2022-08-08T00:32:34.362Z,9.20
2022-08-08T00:35:34.193Z,8.60
2022-08-08T00:38:32.415Z,8.23
2022-08-08T00:42:09.154Z,8.10
2022-08-08T00:45:04.760Z,8.87
2022-08-08T00:48:30.092Z,10.00
2022-08-08T00:51:38.803Z,11.73
2022-08-08T00:54:41.596Z,10.57
2022-08-08T00:57:48.502Z,10.43
2022-08-08T01:00:53.705Z,10.23
2022-08-08T01:04:01.558Z,9.57
2022-08-08T01:07:23.854Z,10.30
2022-08-08T01:10:52.718Z,10.70
2022-08-08T01:14:16.375Z,11.17
2022-08-08T01:17:48.228Z,11.60
2022-08-08T01:20:44.546Z,11.43
2022-08-08T01:24:05.581Z,11.53
2022-08-08T01:27:33.264Z,10.93
2022-08-08T01:31:00.622Z,11.73
2022-08-08T01:34:13.956Z,10.30
2022-08-08T01:37:57.486Z,11.77
2022-08-08T01:40:25.030Z,11.60
2022-08-08T01:43:07.218Z,14.17
2022-08-08T01:45:56.110Z,13.60
2022-08-08T01:48:48.127Z,12.13
2022-08-08T01:52:41.057Z,12.10
2022-08-08T01:55:26.481Z,11.47
2022-08-08T01:58:04.463Z,11.37
2022-08-08T02:00:48.408Z,11.40
2022-08-08T02:03:55.433Z,11.07
2022-08-08T02:06:44.421Z,11.13
2022-08-08T02:10:01.786Z,10.73
2022-08-08T02:12:24.821Z,11.30
2022-08-08T02:15:04.359Z,11.27
2022-08-08T02:17:53.410Z,11.80
2022-08-08T02:21:13.267Z,11.70
2022-08-08T02:23:49.333Z,11.60
2022-08-08T02:26:30.256Z,11.00
2022-08-08T02:29:14.842Z,11.60
2022-08-08T02:32:08.579Z,11.43
2022-08-08T02:35:08.470Z,11.03
2022-08-08T02:38:33.633Z,11.10
2022-08-08T02:42:04.316Z,10.83
2022-08-08T02:45:09.754Z,10.00
2022-08-08T02:48:37.257Z,10.03
2022-08-08T02:51:56.878Z,10.40
2022-08-08T02:54:55.165Z,10.10
2022-08-08T02:58:15.082Z,10.93
2022-08-08T03:01:39.733Z,11.03
2022-08-08T03:05:05.089Z,12.67
2022-08-08T03:08:30.933Z,11.70
2022-08-08T03:12:03.130Z,12.00
2022-08-08T03:15:56.482Z,11.83
2022-08-08T03:18:06.996Z,11.07
2022-08-08T03:20:51.968Z,10.83
2022-08-08T03:23:56.510Z,10.70
2022-08-08T03:26:42.425Z,10.73
2022-08-08T03:29:51.370Z,9.93
2022-08-08T03:32:47.525Z,9.80
2022-08-08T03:35:30.123Z,10.20
2022-08-08T03:38:56.111Z,11.05
2022-08-08T03:40:57.362Z,13.57
2022-08-08T03:43:38.472Z,13.53
2022-08-08T03:46:09.687Z,12.07
2022-08-08T03:49:30.265Z,11.75
2022-08-08T03:51:50.697Z,10.40
2022-08-08T03:54:41.514Z,10.03
2022-08-08T03:58:30.415Z,11.50
2022-08-08T04:00:11.809Z,10.23
2022-08-08T04:02:59.598Z,10.87
2022-08-08T04:05:31.825Z,11.33
2022-08-08T04:08:32.625Z,10.73
2022-08-08T04:11:10.987Z,8.80
2022-08-08T04:14:03.732Z,11.03
2022-08-08T04:16:41.395Z,13.33
2022-08-08T04:19:24.038Z,13.97
2022-08-08T04:22:01.502Z,12.87
2022-08-08T04:24:37.522Z,10.83
2022-08-08T04:27:42.767Z,10.83
2022-08-08T04:30:18.329Z,11.30
2022-08-08T04:32:52.137Z,10.17
2022-08-08T04:35:32.333Z,9.70
2022-08-08T04:38:10.069Z,8.40
2022-08-08T04:40:58.092Z,8.73
2022-08-08T04:43:32.289Z,8.40
2022-08-08T04:46:19.598Z,8.87
2022-08-08T04:48:50.864Z,9.77
2022-08-08T04:54:38.953Z,8.70
2022-08-08T04:56:47.037Z,9.70
2022-08-08T04:59:16.935Z,9.30
2022-08-08T05:01:48.091Z,8.43
2022-08-08T05:04:19.489Z,7.87
2022-08-08T05:06:50.610Z,7.83
2022-08-08T05:09:22.718Z,7.83
2022-08-08T05:11:56.810Z,8.27
2022-08-08T05:14:29.508Z,8.77
2022-08-08T05:17:08.852Z,7.60
2022-08-08T05:20:09.391Z,9.33
2022-08-08T05:22:38.070Z,8.27
2022-08-08T05:25:08.816Z,7.90
2022-08-08T05:27:41.529Z,7.80
2022-08-08T05:30:15.551Z,7.93
2022-08-08T05:32:49.290Z,7.43
2022-08-08T05:35:24.299Z,9.13
2022-08-08T05:38:01.467Z,7.33
2022-08-08T05:40:51.381Z,7.53
2022-08-08T05:44:02.810Z,7.13
2022-08-08T05:46:17.973Z,7.23
2022-08-08T05:48:52.704Z,6.60
2022-08-08T05:51:28.214Z,8.70
2022-08-08T05:54:27.712Z,9.47
2022-08-08T05:58:05.387Z,8.93
2022-08-08T06:00:22.823Z,9.07
2022-08-08T06:03:17.182Z,8.10
2022-08-08T06:06:01.306Z,7.03
2022-08-08T06:08:38.314Z,11.60
2022-08-08T06:11:13.240Z,10.40
2022-08-08T06:13:49.428Z,10.53
2022-08-08T06:16:27.557Z,9.73
2022-08-08T06:19:16.317Z,5.90
2022-08-08T06:21:56.993Z,7.87
2022-08-08T06:24:47.391Z,6.93
2022-08-08T06:27:25.209Z,7.27
2022-08-08T06:30:02.859Z,7.57
2022-08-08T06:32:47.528Z,10.73
2022-08-08T06:36:08.855Z,9.57
2022-08-08T06:38:14.636Z,8.63
2022-08-08T06:40:54.224Z,8.20
2022-08-08T06:43:34.059Z,9.00
2022-08-08T06:46:19.025Z,10.03
2022-08-08T06:48:54.304Z,9.03
2022-08-08T06:51:25.214Z,10.07
2022-08-08T06:54:03.320Z,10.00
2022-08-08T06:56:57.364Z,11.13
2022-08-08T06:59:30.531Z,10.70
2022-08-08T07:02:29.197Z,12.50
2022-08-08T07:05:05.934Z,12.23
2022-08-08T07:08:05.904Z,11.67
2022-08-08T07:10:48.010Z,10.63
2022-08-08T07:13:25.160Z,9.40
2022-08-08T07:16:10.647Z,9.37
2022-08-08T07:18:57.711Z,7.53
2022-08-08T07:21:34.893Z,8.50
2022-08-08T07:24:29.429Z,8.50
2022-08-08T07:27:09.290Z,6.37
2022-08-08T07:30:00.411Z,7.77
2022-08-08T07:32:33.837Z,8.03
2022-08-08T07:35:06.459Z,7.63
2022-08-08T07:37:49.695Z,7.90
2022-08-08T07:40:40.394Z,9.70
2022-08-08T07:43:16.993Z,11.57
2022-08-08T07:46:23.215Z,9.47
2022-08-08T07:48:56.349Z,10.87
2022-08-08T07:51:44.796Z,9.70
2022-08-08T07:54:27.537Z,9.60
2022-08-08T07:57:12.739Z,8.57
2022-08-08T07:59:58.648Z,8.10
2022-08-08T08:02:54.385Z,8.50
2022-08-08T08:05:32.991Z,6.43
2022-08-08T08:08:08.284Z,5.60
2022-08-08T08:10:39.539Z,6.10
2022-08-08T08:13:25.189Z,7.53
2022-08-08T08:16:03.685Z,12.07
2022-08-08T08:18:51.854Z,7.60
2022-08-08T08:21:35.414Z,5.80
2022-08-08T08:24:31.982Z,8.20
2022-08-08T08:27:03.861Z,7.40
2022-08-08T08:29:52.052Z,7.20
2022-08-08T08:32:35.605Z,5.40
2022-08-08T08:35:10.199Z,10.50
2022-08-08T08:38:12.869Z,11.33
2022-08-08T08:40:34.819Z,7.03
2022-08-08T08:43:07.893Z,7.63
2022-08-08T08:46:05.647Z,6.73
2022-08-08T08:48:38.029Z,5.83
2022-08-08T08:51:19.399Z,9.13
2022-08-08T08:53:56.657Z,7.93
2022-08-08T08:56:34.813Z,6.93
2022-08-08T08:59:15.065Z,10.43
2022-08-08T09:01:56.905Z,12.53
2022-08-08T09:04:37.998Z,10.47
2022-08-08T09:07:39.110Z,5.17
2022-08-08T09:10:19.406Z,7.63
2022-08-08T09:12:52.313Z,8.03
2022-08-08T09:15:37.073Z,8.90
2022-08-08T09:18:10.168Z,7.67
2022-08-08T09:21:56.515Z,9.90
2022-08-08T09:23:38.186Z,10.70
2022-08-08T09:26:21.464Z,7.07
2022-08-08T09:28:53.841Z,5.77
2022-08-08T09:31:42.775Z,4.77
2022-08-08T09:34:50.592Z,7.90
2022-08-08T09:37:58.549Z,6.57
2022-08-08T09:40:40.700Z,5.50
2022-08-08T09:43:24.035Z,5.90
2022-08-08T09:46:16.717Z,11.23
2022-08-08T09:48:56.430Z,7.07
2022-08-08T09:51:41.472Z,5.80
2022-08-08T09:54:37.201Z,8.20
2022-08-08T09:57:12.649Z,13.37
2022-08-08T10:00:01.155Z,9.20
2022-08-08T10:02:44.942Z,6.50
2022-08-08T10:05:25.215Z,7.13
2022-08-08T10:08:00.789Z,10.40
2022-08-08T10:10:33.179Z,7.73
2022-08-08T10:13:13.817Z,6.73
2022-08-08T10:16:00.299Z,16.47
2022-08-08T10:18:31.916Z,9.13
2022-08-08T10:21:22.585Z,7.27
2022-08-08T10:23:57.764Z,7.37
2022-08-08T10:26:52.239Z,9.43
2022-08-08T10:29:43.834Z,6.07
2022-08-08T10:32:36.161Z,6.40
2022-08-08T10:35:11.519Z,7.27
2022-08-08T10:37:52.264Z,5.53
2022-08-08T10:40:25.119Z,11.60
2022-08-08T10:43:02.971Z,8.33
2022-08-08T10:45:43.019Z,5.83
2022-08-08T10:48:37.155Z,6.60
2022-08-08T10:51:14.123Z,6.23
2022-08-08T10:53:58.300Z,6.10
2022-08-08T10:56:34.585Z,6.20
2022-08-08T10:59:09.547Z,5.20
2022-08-08T11:01:40.414Z,6.43
2022-08-08T11:04:11.989Z,4.60
2022-08-08T11:06:47.395Z,4.97
2022-08-08T11:09:21.249Z,5.10
2022-08-08T11:12:05.798Z,5.60
2022-08-08T11:14:57.239Z,5.33
2022-08-08T11:18:00.586Z,5.33
2022-08-08T11:20:23.707Z,7.93
2022-08-08T11:23:15.971Z,6.13
2022-08-08T11:25:56.914Z,5.90
2022-08-08T11:28:30.504Z,5.63
2022-08-08T11:31:04.133Z,6.20
2022-08-08T11:33:52.703Z,4.75
2022-08-08T11:36:27.876Z,5.05
2022-08-08T11:38:59.366Z,5.22
2022-08-08T11:41:32.472Z,5.72
2022-08-08T11:44:29.024Z,5.38
2022-08-08T11:47:00.381Z,6.00
2022-08-08T11:49:30.356Z,5.22
2022-08-08T11:51:59.836Z,5.50
2022-08-08T11:54:34.316Z,5.30
2022-08-08T11:57:16.976Z,4.75
2022-08-08T12:00:09.794Z,4.95
2022-08-08T12:02:54.842Z,4.88
2022-08-08T12:05:34.076Z,5.13
2022-08-08T12:08:04.379Z,5.35
2022-08-08T12:10:54.022Z,5.57
2022-08-08T12:13:37.954Z,4.65
2022-08-08T12:16:16.502Z,5.10
2022-08-08T12:18:48.850Z,6.90
2022-08-08T12:22:00.471Z,5.90
2022-08-08T12:24:17.317Z,5.32
2022-08-08T12:26:50.036Z,5.22
2022-08-08T12:29:40.864Z,4.28
2022-08-08T12:32:20.269Z,5.47
2022-08-08T12:35:04.937Z,4.10
2022-08-08T12:37:48.126Z,4.85
2022-08-08T12:40:44.517Z,4.70
2022-08-08T12:43:32.955Z,4.65
2022-08-08T12:46:19.190Z,4.50
2022-08-08T12:49:22.119Z,5.25
2022-08-08T12:51:59.177Z,4.90
2022-08-08T12:54:48.675Z,4.90
2022-08-08T12:57:27.154Z,4.15
2022-08-08T13:00:05.776Z,4.32
2022-08-08T13:02:51.649Z,5.00
2022-08-08T13:05:26.868Z,5.35
2022-08-08T13:08:19.087Z,7.18
2022-08-08T13:10:57.008Z,4.88
2022-08-08T13:13:35.221Z,5.07
2022-08-08T13:16:20.508Z,4.20
2022-08-08T13:18:57.580Z,4.72
2022-08-08T13:21:49.112Z,5.18
2022-08-08T13:24:38.535Z,5.57
2022-08-08T13:27:12.308Z,6.20
2022-08-08T13:29:52.844Z,6.22
2022-08-08T13:32:23.570Z,6.10
2022-08-08T13:34:55.504Z,5.18
2022-08-08T13:37:51.782Z,4.85
2022-08-08T13:40:27.518Z,5.43
2022-08-08T13:42:57.891Z,4.75
2022-08-08T13:45:27.569Z,5.80
2022-08-08T13:48:25.299Z,4.90
2022-08-08T13:51:24.580Z,4.88
2022-08-08T13:54:00.359Z,4.65
2022-08-08T13:56:41.579Z,3.80
2022-08-08T13:59:32.931Z,4.80
2022-08-08T14:02:07.830Z,4.87
2022-08-08T14:04:52.935Z,5.43
2022-08-08T14:07:24.029Z,6.20
2022-08-08T14:10:05.346Z,5.20
2022-08-08T14:12:43.793Z,5.13
2022-08-08T14:15:39.774Z,5.37
2022-08-08T14:18:35.018Z,6.03
2022-08-08T14:21:12.808Z,4.80
2022-08-08T14:24:04.199Z,3.90
2022-08-08T14:26:45.898Z,3.60
2022-08-08T14:29:28.946Z,4.60
2022-08-08T14:32:12.581Z,6.00
2022-08-08T14:34:45.338Z,6.37
2022-08-08T14:37:18.904Z,7.83
2022-08-08T14:40:07.279Z,6.00
2022-08-08T14:42:55.007Z,4.50
2022-08-08T14:46:01.375Z,4.33
2022-08-08T14:48:34.421Z,4.27
2022-08-08T14:51:08.434Z,4.87
2022-08-08T14:53:55.902Z,6.50
2022-08-08T14:56:26.146Z,4.97
2022-08-08T14:58:56.254Z,5.20
2022-08-08T15:01:37.331Z,4.60
2022-08-08T15:04:13.170Z,4.93
2022-08-08T15:06:44.351Z,5.40
2022-08-08T15:09:14.381Z,5.50
2022-08-08T15:11:46.355Z,4.40
2022-08-08T15:14:25.063Z,3.87
2022-08-08T15:16:57.343Z,3.77
2022-08-08T15:19:45.003Z,4.00
2022-08-08T15:22:17.985Z,4.80
2022-08-08T15:24:52.894Z,6.87
2022-08-08T15:28:04.844Z,5.47
2022-08-08T15:30:12.562Z,5.00
2022-08-08T15:32:45.247Z,4.27
2022-08-08T15:35:37.529Z,4.20
2022-08-08T15:38:12.856Z,5.00
2022-08-08T15:40:45.335Z,4.87
2022-08-08T15:43:34.864Z,5.70
2022-08-08T15:46:05.150Z,5.27
2022-08-08T15:48:36.412Z,5.90
2022-08-08T15:51:07.268Z,5.53
2022-08-08T15:53:49.014Z,5.30
2022-08-08T15:56:20.024Z,4.87
2022-08-08T15:58:50.387Z,5.63
2022-08-08T16:01:20.931Z,6.07
2022-08-08T16:03:53.028Z,6.40
2022-08-08T16:06:27.768Z,5.13
2022-08-08T16:09:02.386Z,6.83
2022-08-08T16:13:14.107Z,4.77
2022-08-08T16:14:56.122Z,4.87
2022-08-08T16:17:58.198Z,6.40
2022-08-08T16:20:17.757Z,7.57
2022-08-08T16:22:50.128Z,6.27
2022-08-08T16:25:21.969Z,5.90
2022-08-08T16:27:58.249Z,5.70
2022-08-08T16:30:36.527Z,5.43
2022-08-08T16:33:06.076Z,5.20
2022-08-08T16:35:58.344Z,5.70
2022-08-08T16:38:31.721Z,5.77
2022-08-08T16:41:01.929Z,5.97
2022-08-08T16:43:30.999Z,6.20
2022-08-08T16:46:43.197Z,5.87
2022-08-08T16:49:07.796Z,6.77
2022-08-08T16:55:07.677Z,3.83
2022-08-08T16:55:19.493Z,5.10
2022-08-08T16:57:27.849Z,5.83
2022-08-08T17:00:10.162Z,5.33
2022-08-08T17:02:40.143Z,4.73
2022-08-08T17:05:13.968Z,5.17
2022-08-08T17:07:51.080Z,5.17
2022-08-08T17:10:20.657Z,5.60
2022-08-08T17:12:53.005Z,4.83
2022-08-08T17:15:23.144Z,4.87
2022-08-08T17:18:02.970Z,5.37
2022-08-08T17:20:39.792Z,4.93
2022-08-08T17:23:17.959Z,4.70
2022-08-08T17:26:05.153Z,4.73
2022-08-08T17:28:35.683Z,11.93
2022-08-08T17:31:43.641Z,10.60
2022-08-08T17:34:49.204Z,6.37
2022-08-08T17:36:55.185Z,5.93
2022-08-08T17:40:04.335Z,5.03
2022-08-08T17:42:23.033Z,11.70
2022-08-08T17:44:52.841Z,10.80
2022-08-08T17:47:23.736Z,11.03
2022-08-08T17:50:08.407Z,14.83
2022-08-08T17:52:43.156Z,15.17
2022-08-08T17:56:03.891Z,12.97
2022-08-08T17:58:02.938Z,7.60
2022-08-08T18:00:32.173Z,7.33
2022-08-08T18:03:08.478Z,7.13
2022-08-08T18:05:49.516Z,9.30
2022-08-08T18:08:38.373Z,10.43
2022-08-08T18:11:16.345Z,11.00
2022-08-08T18:14:04.436Z,13.70
2022-08-08T18:16:52.823Z,14.83
2022-08-08T18:19:24.175Z,16.53
2022-08-08T18:22:01.870Z,19.40
2022-08-08T18:24:32.164Z,14.83
2022-08-08T18:27:06.009Z,9.43
2022-08-08T18:30:02.520Z,7.73
2022-08-08T18:32:31.496Z,7.60
2022-08-08T18:35:00.354Z,6.47
2022-08-08T18:37:34.164Z,6.60
2022-08-08T18:40:03.927Z,5.30
2022-08-08T18:42:36.468Z,4.67
2022-08-08T18:45:09.227Z,4.67
2022-08-08T18:47:57.379Z,5.77
2022-08-08T18:50:26.949Z,7.83
2022-08-08T18:52:55.905Z,5.87
2022-08-08T18:55:28.002Z,6.80
2022-08-08T18:57:58.590Z,7.07
2022-08-08T19:00:28.329Z,17.53
2022-08-08T19:03:04.154Z,20.03
2022-08-08T19:05:38.542Z,14.33
2022-08-08T19:08:24.510Z,11.80
2022-08-08T19:10:58.364Z,11.27
2022-08-08T19:13:53.529Z,12.27
2022-08-08T19:16:19.938Z,10.60
2022-08-08T19:19:00.265Z,13.90
2022-08-08T19:21:33.328Z,20.77
2022-08-08T19:24:05.573Z,14.57
2022-08-08T19:26:37.383Z,12.20
2022-08-08T19:29:08.739Z,10.50
2022-08-08T19:31:37.771Z,9.20
2022-08-08T19:34:36.274Z,7.70
2022-08-08T19:36:59.211Z,7.17
2022-08-08T19:39:34.945Z,6.47
2022-08-08T19:42:06.819Z,5.87
2022-08-08T19:44:45.951Z,5.40
2022-08-08T19:47:24.720Z,5.67
2022-08-08T19:50:03.171Z,5.70
2022-08-08T19:52:37.077Z,6.83
2022-08-08T19:55:11.256Z,8.30
2022-08-08T19:57:59.052Z,10.90
2022-08-08T20:00:32.846Z,10.47
2022-08-08T20:03:02.128Z,10.43
2022-08-08T20:06:14.596Z,9.67
2022-08-08T20:08:33.504Z,8.77
2022-08-08T20:11:03.328Z,8.50
2022-08-08T20:14:32.312Z,7.33
2022-08-08T20:16:29.579Z,9.20
2022-08-08T20:18:58.775Z,12.77
2022-08-08T20:21:32.028Z,16.57
2022-08-08T20:24:07.954Z,14.40
2022-08-08T20:26:38.409Z,9.07
2022-08-08T20:29:11.307Z,7.33
2022-08-08T20:32:07.307Z,7.40
2022-08-08T20:34:32.053Z,6.70
2022-08-08T20:37:03.299Z,6.50
2022-08-08T20:39:51.785Z,5.83
2022-08-08T20:42:28.531Z,6.00
2022-08-08T20:44:59.849Z,6.43
2022-08-08T20:47:36.421Z,8.97
2022-08-08T20:50:26.514Z,16.27
2022-08-08T20:52:58.082Z,13.97
2022-08-08T20:55:27.111Z,11.87
2022-08-08T20:57:58.090Z,10.40
2022-08-08T21:00:27.415Z,10.23
2022-08-08T21:02:57.871Z,8.27
2022-08-08T21:05:31.925Z,7.13
2022-08-08T21:08:37.113Z,7.40
2022-08-08T21:11:08.710Z,7.67
2022-08-08T21:13:39.957Z,8.50
2022-08-08T21:16:18.056Z,8.53
2022-08-08T21:18:57.730Z,9.37
2022-08-08T21:21:39.895Z,10.27
2022-08-08T21:24:22.259Z,12.97
2022-08-08T21:26:58.066Z,18.87
2022-08-08T21:30:05.547Z,16.53
2022-08-08T21:32:25.102Z,10.73
2022-08-08T21:34:56.542Z,8.20
2022-08-08T21:37:54.416Z,9.63
2022-08-08T21:40:31.241Z,9.87
2022-08-08T21:43:00.998Z,9.00
2022-08-08T21:48:01.435Z,7.33
2022-08-08T21:48:30.415Z,5.87
2022-08-08T21:51:13.282Z,5.70
2022-08-08T21:54:32.113Z,5.33
2022-08-08T21:56:42.004Z,6.90
2022-08-08T21:59:12.952Z,11.93
2022-08-08T22:01:44.826Z,12.67
2022-08-08T22:04:21.685Z,10.70
2022-08-08T22:06:51.982Z,10.37
2022-08-08T22:09:26.791Z,10.53
2022-08-08T22:12:09.744Z,9.10
2022-08-08T22:14:44.279Z,8.77
2022-08-08T22:17:17.060Z,8.37
2022-08-08T22:20:13.160Z,9.63
2022-08-08T22:22:55.636Z,11.60
2022-08-08T22:25:26.038Z,10.90
2022-08-08T22:28:02.744Z,8.80
2022-08-08T22:30:33.881Z,7.23
2022-08-08T22:33:02.894Z,6.27
2022-08-08T22:36:05.198Z,6.47
2022-08-08T22:38:28.815Z,6.80
2022-08-08T22:40:58.328Z,6.63
2022-08-08T22:43:29.440Z,6.20
2022-08-08T22:46:01.276Z,6.47
2022-08-08T22:48:30.441Z,6.57
2022-08-08T22:50:59.382Z,6.60
2022-08-08T22:54:30.755Z,6.80
2022-08-08T22:56:28.235Z,6.87
2022-08-08T22:58:58.151Z,6.57
2022-08-08T23:02:02.196Z,7.10
2022-08-08T23:04:16.381Z,5.70
2022-08-08T23:07:02.671Z,5.50
2022-08-08T23:09:39.489Z,5.63
2022-08-08T23:12:39.492Z,5.83
2022-08-08T23:15:10.731Z,6.57
2022-08-08T23:17:59.581Z,6.37
2022-08-08T23:20:28.653Z,6.47
2022-08-08T23:22:57.738Z,5.73
2022-08-08T23:25:28.065Z,7.40
2022-08-08T23:27:56.986Z,7.20
2022-08-08T23:30:47.625Z,6.83
2022-08-08T23:33:20.954Z,7.57
2022-08-08T23:36:09.077Z,7.20
2022-08-08T23:38:44.161Z,8.07
2022-08-08T23:41:23.018Z,6.50
2022-08-08T23:43:56.379Z,6.43
2022-08-08T23:49:00.412Z,6.67
2022-08-08T23:49:18.946Z,6.27
2022-08-08T23:52:04.726Z,6.30
2022-08-08T23:54:41.630Z,7.00
2022-08-08T23:57:53.141Z,7.03
